createdAt,value
2023-06-11T00:01:53.603Z,5.07
2023-06-11T00:04:25.743Z,5.40
2023-06-11T00:06:57.534Z,5.38
2023-06-11T00:09:24.937Z,5.35
2023-06-11T00:11:51.563Z,5.18
2023-06-11T00:14:18.138Z,5.18
2023-06-11T00:16:44.967Z,5.38
2023-06-11T00:19:13.092Z,5.80
2023-06-11T00:21:44.829Z,4.90
2023-06-11T00:24:13.284Z,5.00
2023-06-11T00:26:41.414Z,5.20
2023-06-11T00:29:11.702Z,5.45
2023-06-11T00:31:38.324Z,5.07
2023-06-11T00:34:05.154Z,4.63
2023-06-11T00:36:33.696Z,5.20
2023-06-11T00:39:00.421Z,5.65
2023-06-11T00:41:28.025Z,5.32
2023-06-11T00:43:55.473Z,5.78
2023-06-11T00:46:23.183Z,5.75
2023-06-11T00:48:51.646Z,5.32
2023-06-11T00:51:26.027Z,5.65
2023-06-11T00:53:53.570Z,5.30
2023-06-11T00:56:20.545Z,5.10
2023-06-11T00:58:49.716Z,5.45
2023-06-11T01:01:26.339Z,5.47
2023-06-11T01:03:57.607Z,5.40
2023-06-11T01:06:29.604Z,5.70
2023-06-11T01:09:00.656Z,5.25
2023-06-11T01:11:36.611Z,5.70
2023-06-11T01:14:14.050Z,5.47
2023-06-11T01:17:04.092Z,5.63
2023-06-11T01:19:53.795Z,5.63
2023-06-11T01:22:31.594Z,5.95
2023-06-11T01:25:11.976Z,5.60
2023-06-11T01:27:45.011Z,5.50
2023-06-11T01:30:21.877Z,5.93
2023-06-11T01:32:57.455Z,5.38
2023-06-11T01:35:29.807Z,6.18
2023-06-11T01:37:56.898Z,5.40
2023-06-11T01:40:29.787Z,6.82
2023-06-11T01:42:58.795Z,6.32
2023-06-11T01:45:26.188Z,5.38
2023-06-11T01:47:53.349Z,6.15
2023-06-11T01:50:21.660Z,5.65
2023-06-11T01:52:48.653Z,6.35
2023-06-11T01:55:15.988Z,5.97
2023-06-11T01:57:42.938Z,5.70
2023-06-11T02:00:12.010Z,6.57
2023-06-11T02:02:46.450Z,5.50
2023-06-11T02:05:14.372Z,5.75
2023-06-11T02:07:42.019Z,5.72
2023-06-11T02:10:08.904Z,5.85
2023-06-11T02:12:36.218Z,6.40
2023-06-11T02:15:05.139Z,6.63
2023-06-11T02:17:31.802Z,5.50
2023-06-11T02:19:58.409Z,5.60
2023-06-11T02:22:24.984Z,6.13
2023-06-11T02:24:52.482Z,5.93
2023-06-11T02:27:19.732Z,6.10
2023-06-11T02:29:48.041Z,6.25
2023-06-11T02:32:15.448Z,6.03
2023-06-11T02:34:42.243Z,6.13
2023-06-11T02:37:09.615Z,5.72
2023-06-11T02:39:36.295Z,5.82
2023-06-11T02:42:02.967Z,6.03
2023-06-11T02:44:29.600Z,6.72
2023-06-11T02:46:56.318Z,5.97
2023-06-11T02:49:22.930Z,7.00
2023-06-11T02:51:49.537Z,7.00
2023-06-11T02:54:16.298Z,5.38
2023-06-11T02:56:42.925Z,6.65
2023-06-11T02:59:09.530Z,6.50
2023-06-11T03:01:36.314Z,6.10
2023-06-11T03:04:03.168Z,6.28
2023-06-11T03:06:34.811Z,6.85
2023-06-11T03:09:01.950Z,6.10
2023-06-11T03:11:29.093Z,6.65
2023-06-11T03:13:56.115Z,6.53
2023-06-11T03:16:22.873Z,6.50
2023-06-11T03:18:49.487Z,6.32
2023-06-11T03:21:16.261Z,6.93
2023-06-11T03:23:43.000Z,5.40
2023-06-11T03:26:10.044Z,6.63
2023-06-11T03:31:08.119Z,6.60
2023-06-11T03:33:34.896Z,6.90
2023-06-11T03:36:02.829Z,6.28
2023-06-11T03:38:29.463Z,6.60
2023-06-11T03:40:59.031Z,6.10
2023-06-11T03:43:29.999Z,6.00
2023-06-11T03:45:56.646Z,6.15
2023-06-11T03:48:23.397Z,5.97
2023-06-11T03:50:50.437Z,6.65
2023-06-11T03:53:17.174Z,7.03
2023-06-11T03:55:44.567Z,7.38
2023-06-11T03:58:13.663Z,6.72
2023-06-11T04:00:40.639Z,6.47
2023-06-11T04:03:08.045Z,6.55
2023-06-11T04:05:37.298Z,6.82
2023-06-11T04:08:05.216Z,6.38
2023-06-11T04:10:32.872Z,5.93
2023-06-11T04:12:59.482Z,6.20
2023-06-11T04:15:26.851Z,6.45
2023-06-11T04:17:55.033Z,7.50
2023-06-11T04:20:21.837Z,6.53
2023-06-11T04:22:48.802Z,8.13
2023-06-11T04:25:17.951Z,7.28
2023-06-11T04:27:48.042Z,6.68
2023-06-11T04:30:15.764Z,6.55
2023-06-11T04:32:44.381Z,6.43
2023-06-11T04:35:14.753Z,6.72
2023-06-11T04:37:44.678Z,6.07
2023-06-11T04:40:24.735Z,7.00
2023-06-11T04:42:52.084Z,7.18
2023-06-11T04:45:20.182Z,7.38
2023-06-11T04:47:48.221Z,6.43
2023-06-11T04:50:21.855Z,6.25
2023-06-11T04:52:53.174Z,7.78
2023-06-11T04:55:25.912Z,7.38
2023-06-11T04:57:55.345Z,7.10
2023-06-11T05:00:23.093Z,7.80
2023-06-11T05:02:50.897Z,7.22
2023-06-11T05:05:17.630Z,7.40
2023-06-11T05:07:44.572Z,6.72
2023-06-11T05:10:11.564Z,7.63
2023-06-11T05:12:39.160Z,7.38
2023-06-11T05:15:07.010Z,8.25
2023-06-11T05:17:35.020Z,6.80
2023-06-11T05:20:01.836Z,7.53
2023-06-11T05:22:28.557Z,7.85
2023-06-11T05:24:55.355Z,6.93
2023-06-11T05:27:24.688Z,7.13
2023-06-11T05:29:51.498Z,6.82
2023-06-11T05:32:19.185Z,7.25
2023-06-11T05:34:50.839Z,7.18
2023-06-11T05:37:17.673Z,7.03
2023-06-11T05:39:46.935Z,7.53
2023-06-11T05:42:13.628Z,7.30
2023-06-11T05:44:42.878Z,7.68
2023-06-11T05:47:09.831Z,6.75
2023-06-11T05:49:37.540Z,7.13
2023-06-11T05:52:04.405Z,6.68
2023-06-11T05:54:31.424Z,6.00
2023-06-11T05:56:59.133Z,6.13
2023-06-11T05:59:25.862Z,6.03
2023-06-11T06:01:52.692Z,6.72
2023-06-11T06:04:22.355Z,7.32
2023-06-11T06:06:49.048Z,7.97
2023-06-11T06:09:15.703Z,6.75
2023-06-11T06:11:43.467Z,7.43
2023-06-11T06:14:10.790Z,6.97
2023-06-11T06:16:38.545Z,7.20
2023-06-11T06:19:09.496Z,7.72
2023-06-11T06:21:36.201Z,7.07
2023-06-11T06:24:03.113Z,6.97
2023-06-11T06:26:29.861Z,8.25
2023-06-11T06:28:56.537Z,7.78
2023-06-11T06:31:24.185Z,7.47
2023-06-11T06:33:52.367Z,7.25
2023-06-11T06:36:21.224Z,7.47
2023-06-11T06:38:48.447Z,7.18
2023-06-11T06:41:15.996Z,7.38
2023-06-11T06:43:42.761Z,6.93
2023-06-11T06:46:14.139Z,7.55
2023-06-11T06:48:41.394Z,7.18
2023-06-11T06:51:08.745Z,7.85
2023-06-11T06:53:38.680Z,7.88
2023-06-11T06:56:06.980Z,6.40
2023-06-11T06:58:34.726Z,6.72
2023-06-11T07:01:01.529Z,7.25
2023-06-11T07:03:28.232Z,7.45
2023-06-11T07:05:56.788Z,7.03
2023-06-11T07:08:23.495Z,6.72
2023-06-11T07:10:52.220Z,6.75
2023-06-11T07:13:26.048Z,6.65
2023-06-11T07:15:56.169Z,6.20
2023-06-11T07:18:23.624Z,6.68
2023-06-11T07:20:50.209Z,6.00
2023-06-11T07:23:16.862Z,5.85
2023-06-11T07:25:45.109Z,6.32
2023-06-11T07:28:13.083Z,6.07
2023-06-11T07:30:39.841Z,6.45
2023-06-11T07:33:06.916Z,6.00
2023-06-11T07:35:35.063Z,6.55
2023-06-11T07:38:02.633Z,6.30
2023-06-11T07:40:29.459Z,6.28
2023-06-11T07:42:56.629Z,5.65
2023-06-11T07:45:23.461Z,6.55
2023-06-11T07:47:50.970Z,5.25
2023-06-11T07:50:17.961Z,6.45
2023-06-11T07:52:44.556Z,5.57
2023-06-11T07:55:23.523Z,6.03
2023-06-11T07:57:50.244Z,5.90
2023-06-11T08:00:18.271Z,5.85
2023-06-11T08:02:48.974Z,5.80
2023-06-11T08:05:19.471Z,5.25
2023-06-11T08:07:47.518Z,5.78
2023-06-11T08:10:14.386Z,5.07
2023-06-11T08:12:41.298Z,5.38
2023-06-11T08:15:08.253Z,5.57
2023-06-11T08:17:34.967Z,5.47
2023-06-11T08:20:02.103Z,5.40
2023-06-11T08:22:28.747Z,5.38
2023-06-11T08:24:55.485Z,4.60
2023-06-11T08:27:22.122Z,5.20
2023-06-11T08:29:48.752Z,5.50
2023-06-11T08:32:15.746Z,4.95
2023-06-11T08:34:42.462Z,5.20
2023-06-11T08:37:09.355Z,5.72
2023-06-11T08:39:36.303Z,4.82
2023-06-11T08:42:02.932Z,5.22
2023-06-11T08:44:29.594Z,4.53
2023-06-11T08:46:59.616Z,4.93
2023-06-11T08:49:26.601Z,4.80
2023-06-11T08:51:56.284Z,5.60
2023-06-11T08:54:23.171Z,4.28
2023-06-11T08:56:50.002Z,4.18
2023-06-11T08:59:17.315Z,4.30
2023-06-11T09:01:51.633Z,4.07
2023-06-11T09:04:19.721Z,3.75
2023-06-11T09:06:53.920Z,4.22
2023-06-11T09:09:20.650Z,4.10
2023-06-11T09:11:47.984Z,3.95
2023-06-11T09:14:14.692Z,3.33
2023-06-11T09:16:46.483Z,4.07
2023-06-11T09:19:18.771Z,3.50
2023-06-11T09:21:53.313Z,3.95
2023-06-11T09:24:21.921Z,3.97
2023-06-11T09:26:56.648Z,3.80
2023-06-11T09:29:24.783Z,3.20
2023-06-11T09:32:31.166Z,4.68
2023-06-11T09:34:57.062Z,3.42
2023-06-11T09:37:24.825Z,3.78
2023-06-11T09:39:51.611Z,3.22
2023-06-11T09:42:28.186Z,3.90
2023-06-11T09:45:00.061Z,3.45
2023-06-11T09:47:29.511Z,3.53
2023-06-11T09:49:57.464Z,3.67
2023-06-11T09:52:24.187Z,3.13
2023-06-11T09:54:51.893Z,3.33
2023-06-11T09:57:18.802Z,3.70
2023-06-11T09:59:46.385Z,3.97
2023-06-11T10:02:13.323Z,3.70
2023-06-11T10:04:40.111Z,3.47
2023-06-11T10:07:08.105Z,3.88
2023-06-11T10:09:35.493Z,3.47
2023-06-11T10:12:02.311Z,4.07
2023-06-11T10:14:31.471Z,4.20
2023-06-11T10:16:58.570Z,3.85
2023-06-11T10:19:35.726Z,3.30
2023-06-11T10:22:03.191Z,3.55
2023-06-11T10:24:30.247Z,3.75
2023-06-11T10:27:06.597Z,3.97
2023-06-11T10:29:43.620Z,3.95
2023-06-11T10:32:22.177Z,3.47
2023-06-11T10:34:57.565Z,3.40
2023-06-11T10:37:29.924Z,3.33
2023-06-11T10:39:56.797Z,3.63
2023-06-11T10:42:44.529Z,3.05
2023-06-11T10:45:13.468Z,3.60
2023-06-11T10:47:45.005Z,3.30
2023-06-11T10:50:14.341Z,3.78
2023-06-11T10:52:51.467Z,3.38
2023-06-11T10:55:22.833Z,2.90
2023-06-11T10:57:53.834Z,3.63
2023-06-11T11:00:21.108Z,3.30
2023-06-11T11:02:48.467Z,3.17
2023-06-11T11:05:15.414Z,3.35
2023-06-11T11:07:46.021Z,3.20
2023-06-11T11:10:20.043Z,2.78
2023-06-11T11:12:48.077Z,2.97
2023-06-11T11:15:16.042Z,3.45
2023-06-11T11:17:44.733Z,3.03
2023-06-11T11:20:18.393Z,3.10
2023-06-11T11:22:55.543Z,2.95
2023-06-11T11:25:25.464Z,3.10
2023-06-11T11:27:52.095Z,3.25
2023-06-11T11:30:19.095Z,3.40
2023-06-11T11:32:46.317Z,3.85
2023-06-11T11:35:15.836Z,3.08
2023-06-11T11:37:45.670Z,3.17
2023-06-11T11:40:13.175Z,3.60
2023-06-11T11:42:53.884Z,3.45
2023-06-11T11:45:34.792Z,3.00
2023-06-11T11:50:32.864Z,2.80
2023-06-11T11:53:08.249Z,2.85
2023-06-11T11:55:41.975Z,3.28
2023-06-11T11:58:16.703Z,2.80
2023-06-11T12:00:54.576Z,3.55
2023-06-11T12:03:22.808Z,3.42
2023-06-11T12:06:02.837Z,3.10
2023-06-11T12:08:31.310Z,3.00
2023-06-11T12:10:59.028Z,3.28
2023-06-11T12:13:26.118Z,2.67
2023-06-11T12:15:53.393Z,3.20
2023-06-11T12:18:20.197Z,2.70
2023-06-11T12:20:47.773Z,3.22
2023-06-11T12:23:14.348Z,2.70
2023-06-11T12:25:41.366Z,3.25
2023-06-11T12:28:07.943Z,3.35
2023-06-11T12:30:36.009Z,2.72
2023-06-11T12:33:02.714Z,2.83
2023-06-11T12:35:30.671Z,3.20
2023-06-11T12:37:57.840Z,3.03
2023-06-11T12:40:24.871Z,3.40
2023-06-11T12:42:57.801Z,3.00
2023-06-11T12:45:27.162Z,3.20
2023-06-11T12:47:53.921Z,3.53
2023-06-11T12:50:24.069Z,2.92
2023-06-11T12:52:53.361Z,2.67
2023-06-11T12:55:20.640Z,3.13
2023-06-11T12:57:47.418Z,2.90
2023-06-11T13:00:14.969Z,3.25
2023-06-11T13:02:42.402Z,3.20
2023-06-11T13:05:09.460Z,3.05
2023-06-11T13:07:36.068Z,2.75
2023-06-11T13:10:03.210Z,2.80
2023-06-11T13:12:29.878Z,3.00
2023-06-11T13:14:56.654Z,3.22
2023-06-11T13:17:23.290Z,3.08
2023-06-11T13:19:50.053Z,3.30
2023-06-11T13:22:17.309Z,3.15
2023-06-11T13:24:44.059Z,3.42
2023-06-11T13:27:10.823Z,3.35
2023-06-11T13:29:37.605Z,3.08
2023-06-11T13:32:04.840Z,3.22
2023-06-11T13:34:33.823Z,3.42
2023-06-11T13:37:02.219Z,3.67
2023-06-11T13:39:29.004Z,3.50
2023-06-11T13:41:55.812Z,3.78
2023-06-11T13:44:24.956Z,3.50
2023-06-11T13:46:52.400Z,3.70
2023-06-11T13:49:19.192Z,3.85
2023-06-11T13:51:45.799Z,3.20
2023-06-11T13:54:12.472Z,3.35
2023-06-11T13:56:40.028Z,3.53
2023-06-11T13:59:06.641Z,3.28
2023-06-11T14:01:33.428Z,2.85
2023-06-11T14:04:00.222Z,4.20
2023-06-11T14:06:26.950Z,3.67
2023-06-11T14:08:53.588Z,3.47
2023-06-11T14:11:20.479Z,4.45
2023-06-11T14:13:47.267Z,3.53
2023-06-11T14:16:13.908Z,3.45
2023-06-11T14:18:40.601Z,3.38
2023-06-11T14:21:07.281Z,3.50
2023-06-11T14:23:33.977Z,3.67
2023-06-11T14:26:00.884Z,3.22
2023-06-11T14:28:29.624Z,3.60
2023-06-11T14:30:56.303Z,3.00
2023-06-11T14:33:22.960Z,3.08
2023-06-11T14:35:51.643Z,3.67
2023-06-11T14:38:19.164Z,3.80
2023-06-11T14:40:45.931Z,3.60
2023-06-11T14:43:12.507Z,2.88
2023-06-11T14:45:41.336Z,3.30
2023-06-11T14:48:08.524Z,3.28
2023-06-11T14:50:35.516Z,3.05
2023-06-11T14:53:02.340Z,3.55
2023-06-11T14:55:28.946Z,3.10
2023-06-11T14:57:55.594Z,3.15
2023-06-11T15:00:22.401Z,3.38
2023-06-11T15:02:49.197Z,3.17
2023-06-11T15:05:16.713Z,2.78
2023-06-11T15:07:43.379Z,2.97
2023-06-11T15:10:11.713Z,3.15
2023-06-11T15:12:38.619Z,3.33
2023-06-11T15:15:06.400Z,3.13
2023-06-11T15:17:37.237Z,3.72
2023-06-11T15:20:08.367Z,3.38
2023-06-11T15:22:40.465Z,3.10
2023-06-11T15:25:10.817Z,3.33
2023-06-11T15:27:37.858Z,3.42
2023-06-11T15:30:05.289Z,3.05
2023-06-11T15:32:32.081Z,3.28
2023-06-11T15:34:59.119Z,2.97
2023-06-11T15:37:26.006Z,3.20
2023-06-11T15:39:52.959Z,2.85
2023-06-11T15:42:20.059Z,3.30
2023-06-11T15:44:49.257Z,3.05
2023-06-11T15:47:16.464Z,3.30
2023-06-11T15:49:43.152Z,3.22
2023-06-11T15:52:09.823Z,2.95
2023-06-11T15:54:36.504Z,3.47
2023-06-11T15:57:03.276Z,3.15
2023-06-11T15:59:29.919Z,3.35
2023-06-11T16:01:56.721Z,3.50
2023-06-11T16:04:26.011Z,3.55
2023-06-11T16:06:52.707Z,2.97
2023-06-11T16:09:20.611Z,2.97
2023-06-11T16:11:47.277Z,3.47
2023-06-11T16:14:16.026Z,2.92
2023-06-11T16:16:43.337Z,3.03
2023-06-11T16:19:10.153Z,2.67
2023-06-11T16:21:37.868Z,3.22
2023-06-11T16:24:05.799Z,2.95
2023-06-11T16:26:32.633Z,2.97
2023-06-11T16:28:59.420Z,2.90
2023-06-11T16:31:26.344Z,3.10
2023-06-11T16:33:58.415Z,3.38
2023-06-11T16:36:27.230Z,2.88
2023-06-11T16:38:53.904Z,3.53
2023-06-11T16:41:21.883Z,2.45
2023-06-11T16:43:51.719Z,2.85
2023-06-11T16:46:19.069Z,2.75
2023-06-11T16:48:46.858Z,3.40
2023-06-11T16:51:13.609Z,2.80
2023-06-11T16:53:40.257Z,3.08
2023-06-11T16:56:06.876Z,2.88
2023-06-11T16:58:33.528Z,2.72
2023-06-11T17:01:00.412Z,2.50
2023-06-11T17:03:27.208Z,3.00
2023-06-11T17:05:53.886Z,3.10
2023-06-11T17:08:20.742Z,2.83
2023-06-11T17:10:47.357Z,3.17
2023-06-11T17:13:13.973Z,3.60
2023-06-11T17:15:40.567Z,2.80
2023-06-11T17:18:07.243Z,3.05
2023-06-11T17:20:35.121Z,2.80
2023-06-11T17:23:02.226Z,2.90
2023-06-11T17:25:28.813Z,3.05
2023-06-11T17:27:55.436Z,2.95
2023-06-11T17:30:22.117Z,3.20
2023-06-11T17:32:48.780Z,2.72
2023-06-11T17:35:15.587Z,3.13
2023-06-11T17:37:42.365Z,2.97
2023-06-11T17:40:09.896Z,3.13
2023-06-11T17:42:41.763Z,3.00
2023-06-11T17:45:09.917Z,2.97
2023-06-11T17:47:39.915Z,3.05
2023-06-11T17:50:07.409Z,2.92
2023-06-11T17:52:34.578Z,2.30
2023-06-11T17:55:01.199Z,2.83
2023-06-11T17:57:27.803Z,3.00
2023-06-11T17:59:54.373Z,2.70
2023-06-11T18:02:21.568Z,3.17
2023-06-11T18:04:48.273Z,3.28
2023-06-11T18:07:14.892Z,2.90
2023-06-11T18:09:41.496Z,2.80
2023-06-11T18:12:08.764Z,2.80
2023-06-11T18:14:35.485Z,3.35
2023-06-11T18:17:02.148Z,3.20
2023-06-11T18:19:28.891Z,2.97
2023-06-11T18:21:55.453Z,3.33
2023-06-11T18:24:22.196Z,2.42
2023-06-11T18:26:48.850Z,3.55
2023-06-11T18:29:15.444Z,2.63
2023-06-11T18:31:42.015Z,2.78
2023-06-11T18:34:08.623Z,2.83
2023-06-11T18:36:35.680Z,2.65
2023-06-11T18:39:04.031Z,3.40
2023-06-11T18:41:31.277Z,3.03
2023-06-11T18:43:57.999Z,2.85
2023-06-11T18:46:25.851Z,2.33
2023-06-11T18:48:52.669Z,2.63
2023-06-11T18:51:19.573Z,2.80
2023-06-11T18:53:46.337Z,2.50
2023-06-11T18:56:13.377Z,2.35
2023-06-11T18:58:40.032Z,2.38
2023-06-11T19:01:06.726Z,2.67
2023-06-11T19:03:36.230Z,2.63
2023-06-11T19:06:05.484Z,2.70
2023-06-11T19:08:32.058Z,2.75
2023-06-11T19:10:58.657Z,3.00
2023-06-11T19:13:25.679Z,3.15
2023-06-11T19:15:52.366Z,2.65
2023-06-11T19:18:19.238Z,2.83
2023-06-11T19:20:45.925Z,2.90
2023-06-11T19:23:14.578Z,2.95
2023-06-11T19:25:41.658Z,2.70
2023-06-11T19:28:08.343Z,2.53
2023-06-11T19:30:34.991Z,2.63
2023-06-11T19:33:01.834Z,2.60
2023-06-11T19:35:28.692Z,2.80
2023-06-11T19:37:55.362Z,2.67
2023-06-11T19:40:22.073Z,3.42
2023-06-11T19:42:48.674Z,2.67
2023-06-11T19:45:18.982Z,2.92
2023-06-11T19:47:45.809Z,3.20
2023-06-11T19:50:12.729Z,2.70
2023-06-11T19:52:39.574Z,2.60
2023-06-11T19:55:06.454Z,2.50
2023-06-11T19:57:33.036Z,2.67
2023-06-11T20:00:00.657Z,2.78
2023-06-11T20:02:28.111Z,2.92
2023-06-11T20:04:54.996Z,2.78
2023-06-11T20:07:21.868Z,2.90
2023-06-11T20:09:48.567Z,2.78
2023-06-11T20:12:15.232Z,2.50
2023-06-11T20:14:41.896Z,3.00
2023-06-11T20:17:08.530Z,2.50
2023-06-11T20:19:36.908Z,2.78
2023-06-11T20:22:07.134Z,2.53
2023-06-11T20:24:33.834Z,2.58
2023-06-11T20:27:00.527Z,2.67
2023-06-11T20:29:27.117Z,2.75
2023-06-11T20:31:53.803Z,3.20
2023-06-11T20:34:20.695Z,2.85
2023-06-11T20:36:47.922Z,3.08
2023-06-11T20:39:14.547Z,3.15
2023-06-11T20:41:41.172Z,3.00
2023-06-11T20:44:07.791Z,2.85
2023-06-11T20:46:34.481Z,3.22
2023-06-11T20:49:01.188Z,2.97
2023-06-11T20:51:27.928Z,2.60
2023-06-11T20:53:54.575Z,2.65
2023-06-11T20:56:22.814Z,2.72
2023-06-11T20:58:49.600Z,3.00
2023-06-11T21:01:16.569Z,2.88
2023-06-11T21:03:43.387Z,2.90
2023-06-11T21:06:10.093Z,2.63
2023-06-11T21:08:36.726Z,2.90
2023-06-11T21:11:03.323Z,2.97
2023-06-11T21:13:30.471Z,3.03
2023-06-11T21:15:57.292Z,3.08
2023-06-11T21:18:24.010Z,3.35
2023-06-11T21:20:50.794Z,3.10
2023-06-11T21:23:17.438Z,3.28
2023-06-11T21:25:44.120Z,3.33
2023-06-11T21:28:10.713Z,3.15
2023-06-11T21:30:37.998Z,3.55
2023-06-11T21:33:04.815Z,3.03
2023-06-11T21:35:31.685Z,3.13
2023-06-11T21:37:58.389Z,2.90
2023-06-11T21:40:25.004Z,3.60
2023-06-11T21:42:51.587Z,3.10
2023-06-11T21:45:18.161Z,2.72
2023-06-11T21:47:44.753Z,3.65
2023-06-11T21:50:11.813Z,3.30
2023-06-11T21:52:39.442Z,3.28
2023-06-11T21:55:07.343Z,2.95
2023-06-11T21:57:34.254Z,3.15
2023-06-11T22:00:12.720Z,2.63
2023-06-11T22:02:43.818Z,2.97
2023-06-11T22:05:13.401Z,3.17
2023-06-11T22:07:40.586Z,3.35
2023-06-11T22:10:09.334Z,3.13
2023-06-11T22:12:41.049Z,3.33
2023-06-11T22:15:09.925Z,3.00
2023-06-11T22:17:38.154Z,3.20
2023-06-11T22:20:10.235Z,3.03
2023-06-11T22:22:39.130Z,2.75
2023-06-11T22:25:06.849Z,3.65
2023-06-11T22:27:33.616Z,3.13
2023-06-11T22:30:00.565Z,3.00
2023-06-11T22:32:27.590Z,2.53
2023-06-11T22:34:54.308Z,2.70
2023-06-11T22:37:20.902Z,3.17
2023-06-11T22:39:47.507Z,3.35
2023-06-11T22:42:14.113Z,2.90
2023-06-11T22:44:40.669Z,2.38
2023-06-11T22:47:07.698Z,2.65
2023-06-11T22:49:35.187Z,3.10
2023-06-11T22:52:02.039Z,2.85
2023-06-11T22:54:29.061Z,2.75
2023-06-11T22:56:55.629Z,2.55
2023-06-11T22:59:22.225Z,2.85
2023-06-11T23:01:49.555Z,2.83
2023-06-11T23:04:16.673Z,2.95
2023-06-11T23:06:51.005Z,3.25
2023-06-11T23:09:19.541Z,3.08
2023-06-11T23:11:47.179Z,3.20
2023-06-11T23:14:15.583Z,3.10
2023-06-11T23:16:48.664Z,3.30
2023-06-11T23:19:18.553Z,3.55
2023-06-11T23:21:45.646Z,3.10
2023-06-11T23:24:12.806Z,3.22
2023-06-11T23:26:45.048Z,3.13
2023-06-11T23:29:13.554Z,2.88
2023-06-11T23:31:40.482Z,2.60
2023-06-11T23:34:07.102Z,2.80
2023-06-11T23:36:40.949Z,2.70
2023-06-11T23:39:11.171Z,3.10
2023-06-11T23:41:37.736Z,2.70
2023-06-11T23:44:04.771Z,2.97
2023-06-11T23:46:32.247Z,3.60
2023-06-11T23:48:58.887Z,3.30
2023-06-11T23:51:25.767Z,3.47
2023-06-11T23:53:53.629Z,3.25
2023-06-11T23:56:20.542Z,2.80
2023-06-11T23:58:47.432Z,2.67
